createdAt,value
2023-05-02T00:02:51.661Z,87
2023-05-02T00:06:16.621Z,87
2023-05-02T00:09:41.781Z,87
2023-05-02T00:13:06.988Z,87
2023-05-02T00:16:32.217Z,87
2023-05-02T00:19:57.559Z,87
2023-05-02T00:23:22.520Z,87
2023-05-02T00:26:47.670Z,87
2023-05-02T00:30:12.871Z,87
2023-05-02T00:33:38.046Z,87
2023-05-02T00:37:03.230Z,86
2023-05-02T00:40:28.424Z,87
2023-05-02T00:43:53.619Z,87
2023-05-02T00:47:18.829Z,87
2023-05-02T00:50:43.956Z,87
2023-05-02T00:54:09.132Z,86
2023-05-02T00:57:34.304Z,86
2023-05-02T01:00:59.479Z,86
2023-05-02T01:04:24.685Z,86
2023-05-02T01:07:49.811Z,86
2023-05-02T01:11:15.007Z,86
2023-05-02T01:14:40.176Z,86
2023-05-02T01:18:05.386Z,86
2023-05-02T01:21:30.541Z,86
2023-05-02T01:24:55.695Z,86
2023-05-02T01:28:20.893Z,86
2023-05-02T01:31:46.125Z,86
2023-05-02T01:35:11.218Z,86
2023-05-02T01:38:36.417Z,86
2023-05-02T01:42:01.559Z,86
2023-05-02T01:45:26.763Z,86
2023-05-02T01:48:51.933Z,86
2023-05-02T01:52:17.116Z,86
2023-05-02T01:55:42.463Z,86
2023-05-02T01:59:07.484Z,85
2023-05-02T02:02:32.673Z,85
2023-05-02T02:05:57.854Z,85
2023-05-02T02:09:23.678Z,86
2023-05-02T02:12:48.912Z,86
2023-05-02T02:16:14.063Z,85
2023-05-02T02:19:39.206Z,85
2023-05-02T02:23:04.399Z,85
2023-05-02T02:26:29.583Z,85
2023-05-02T02:29:54.768Z,85
2023-05-02T02:33:19.913Z,85
2023-05-02T02:36:45.197Z,85
2023-05-02T02:40:10.391Z,85
2023-05-02T02:43:35.532Z,85
2023-05-02T02:47:00.750Z,85
2023-05-02T02:50:25.899Z,85
2023-05-02T02:53:51.096Z,85
2023-05-02T02:57:16.301Z,85
2023-05-02T03:00:41.484Z,85
2023-05-02T03:04:06.844Z,85
2023-05-02T03:07:31.818Z,85
2023-05-02T03:10:56.990Z,85
2023-05-02T03:14:22.157Z,85
2023-05-02T03:17:47.372Z,84
2023-05-02T03:21:12.549Z,85
2023-05-02T03:24:37.698Z,84
2023-05-02T03:28:02.855Z,85
2023-05-02T03:31:28.076Z,85
2023-05-02T03:34:53.217Z,84
2023-05-02T03:38:18.484Z,85
2023-05-02T03:41:43.824Z,85
2023-05-02T03:45:09.068Z,85
2023-05-02T03:48:34.227Z,85
2023-05-02T03:52:14.765Z,86
2023-05-02T03:55:40.327Z,85
2023-05-02T03:59:05.404Z,85
2023-05-02T04:02:30.739Z,85
2023-05-02T04:05:55.850Z,85
2023-05-02T04:09:21.033Z,85
2023-05-02T04:12:46.240Z,85
2023-05-02T04:16:11.421Z,85
2023-05-02T04:19:36.592Z,85
2023-05-02T04:23:01.790Z,85
2023-05-02T04:26:26.963Z,84
2023-05-02T04:29:52.140Z,85
2023-05-02T04:33:17.322Z,84
2023-05-02T04:36:42.447Z,85
2023-05-02T04:40:07.688Z,85
2023-05-02T04:43:32.822Z,85
2023-05-02T04:46:58.052Z,85
2023-05-02T04:50:23.231Z,85
2023-05-02T04:53:48.421Z,85
2023-05-02T04:57:13.582Z,85
2023-05-02T05:00:38.747Z,85
2023-05-02T05:04:04.155Z,85
2023-05-02T05:07:29.116Z,84
2023-05-02T05:10:54.272Z,84
2023-05-02T05:14:19.433Z,84
2023-05-02T05:17:44.676Z,84
2023-05-02T05:21:09.784Z,85
2023-05-02T05:24:34.917Z,85
2023-05-02T05:28:00.079Z,85
2023-05-02T05:31:25.288Z,85
2023-05-02T05:34:50.423Z,85
2023-05-02T05:38:15.600Z,85
2023-05-02T05:41:40.758Z,85
2023-05-02T05:45:05.902Z,85
2023-05-02T05:48:31.134Z,84
2023-05-02T05:51:56.268Z,84
2023-05-02T05:55:21.585Z,84
2023-05-02T05:58:46.796Z,84
2023-05-02T06:02:12.059Z,84
2023-05-02T06:05:37.313Z,84
2023-05-02T06:09:02.528Z,84
2023-05-02T06:12:27.761Z,85
2023-05-02T06:15:52.999Z,85
2023-05-02T06:19:18.174Z,85
2023-05-02T06:22:43.406Z,85
2023-05-02T06:26:08.663Z,85
2023-05-02T06:29:33.963Z,85
2023-05-02T06:32:59.192Z,85
2023-05-02T06:36:24.436Z,84
2023-05-02T06:39:49.638Z,85
2023-05-02T06:43:14.862Z,85
2023-05-02T06:46:40.144Z,85
2023-05-02T06:50:05.332Z,85
2023-05-02T06:53:32.404Z,85
2023-05-02T06:56:55.732Z,85
2023-05-02T07:00:20.901Z,85
2023-05-02T07:03:46.247Z,85
2023-05-02T07:07:11.402Z,84
2023-05-02T07:10:36.618Z,85
2023-05-02T07:14:01.844Z,84
2023-05-02T07:17:27.054Z,85
2023-05-02T07:20:52.252Z,84
2023-05-02T07:24:17.414Z,85
2023-05-02T07:27:42.586Z,85
2023-05-02T07:31:07.782Z,86
2023-05-02T07:34:32.941Z,86
2023-05-02T07:37:58.192Z,86
2023-05-02T07:41:23.475Z,86
2023-05-02T07:44:48.669Z,85
2023-05-02T07:48:13.872Z,86
2023-05-02T07:51:39.070Z,85
2023-05-02T07:55:04.342Z,84
2023-05-02T07:58:29.550Z,84
2023-05-02T08:01:54.852Z,85
2023-05-02T08:05:20.149Z,85
2023-05-02T08:08:45.383Z,85
2023-05-02T08:12:11.453Z,85
2023-05-02T08:15:36.757Z,85
2023-05-02T08:19:01.948Z,84
2023-05-02T08:22:27.181Z,84
2023-05-02T08:25:52.503Z,84
2023-05-02T08:29:17.782Z,82
2023-05-02T08:32:42.931Z,83
2023-05-02T08:36:08.214Z,82
2023-05-02T08:39:33.457Z,82
2023-05-02T08:42:58.668Z,82
2023-05-02T08:46:24.056Z,82
2023-05-02T08:49:49.181Z,81
2023-05-02T08:53:14.396Z,79
2023-05-02T08:56:39.559Z,81
2023-05-02T09:00:05.632Z,80
2023-05-02T09:03:30.945Z,81
2023-05-02T09:06:56.112Z,81
2023-05-02T09:10:21.379Z,82
2023-05-02T09:13:46.542Z,81
2023-05-02T09:17:11.911Z,81
2023-05-02T09:20:37.212Z,80
2023-05-02T09:24:02.408Z,81
2023-05-02T09:27:27.619Z,80
2023-05-02T09:30:52.899Z,81
2023-05-02T09:34:18.248Z,81
2023-05-02T09:37:43.373Z,81
2023-05-02T09:41:08.538Z,81
2023-05-02T09:44:34.546Z,80
2023-05-02T09:47:59.105Z,79
2023-05-02T09:51:24.297Z,78
2023-05-02T09:54:49.579Z,81
2023-05-02T09:58:14.795Z,80
2023-05-02T10:01:40.100Z,80
2023-05-02T10:05:05.336Z,80
2023-05-02T10:08:30.590Z,80
2023-05-02T10:11:55.875Z,81
2023-05-02T10:15:21.112Z,80
2023-05-02T10:18:49.106Z,81
2023-05-02T10:22:14.198Z,79
2023-05-02T10:25:39.448Z,79
2023-05-02T10:29:04.752Z,79
2023-05-02T10:32:30.125Z,79
2023-05-02T10:35:55.267Z,79
2023-05-02T10:39:20.518Z,79
2023-05-02T10:42:45.778Z,80
2023-05-02T10:46:10.990Z,80
2023-05-02T10:49:36.193Z,79
2023-05-02T10:53:01.448Z,80
2023-05-02T10:56:29.152Z,77
2023-05-02T10:59:51.983Z,74
2023-05-02T11:03:17.281Z,76
2023-05-02T11:06:42.471Z,77
2023-05-02T11:10:08.259Z,75
2023-05-02T11:13:33.525Z,77
2023-05-02T11:16:59.071Z,76
2023-05-02T11:20:24.021Z,77
2023-05-02T11:23:49.247Z,79
2023-05-02T11:27:14.484Z,74
2023-05-02T11:30:39.741Z,73
2023-05-02T11:34:05.026Z,77
2023-05-02T11:37:30.344Z,78
2023-05-02T11:40:55.552Z,76
2023-05-02T11:44:20.781Z,76
2023-05-02T11:47:46.056Z,74
2023-05-02T11:51:11.271Z,74
2023-05-02T11:54:36.538Z,74
2023-05-02T11:58:01.791Z,75
2023-05-02T12:01:29.253Z,71
2023-05-02T12:05:06.416Z,70
2023-05-02T12:08:31.664Z,72
2023-05-02T12:11:56.969Z,72
2023-05-02T12:15:23.130Z,69
2023-05-02T12:19:02.518Z,70
2023-05-02T12:22:40.920Z,70
2023-05-02T12:26:06.183Z,71
2023-05-02T12:29:31.537Z,72
2023-05-02T12:32:57.064Z,72
2023-05-02T12:36:22.305Z,71
2023-05-02T12:39:47.579Z,70
2023-05-02T12:43:12.862Z,71
2023-05-02T12:46:38.247Z,69
2023-05-02T12:50:03.688Z,69
2023-05-02T12:53:28.895Z,72
2023-05-02T12:56:54.213Z,70
2023-05-02T13:00:19.555Z,71
2023-05-02T13:03:44.978Z,74
2023-05-02T13:07:10.217Z,75
2023-05-02T13:10:35.580Z,77
2023-05-02T13:14:00.983Z,79
2023-05-02T13:17:26.484Z,81
2023-05-02T13:20:51.682Z,81
2023-05-02T13:24:16.962Z,83
2023-05-02T13:27:42.305Z,83
2023-05-02T13:31:07.729Z,83
2023-05-02T13:34:33.003Z,84
2023-05-02T13:37:58.384Z,83
2023-05-02T13:41:23.595Z,83
2023-05-02T13:44:48.934Z,85
2023-05-02T13:48:14.306Z,86
2023-05-02T13:51:39.495Z,86
2023-05-02T13:55:04.724Z,86
2023-05-02T13:58:29.986Z,86
2023-05-02T14:01:55.284Z,85
2023-05-02T14:05:20.512Z,86
2023-05-02T14:08:45.767Z,86
2023-05-02T14:12:10.988Z,85
2023-05-02T14:15:36.257Z,85
2023-05-02T14:19:01.505Z,85
2023-05-02T14:22:26.815Z,85
2023-05-02T14:25:52.095Z,85
2023-05-02T14:29:17.387Z,84
2023-05-02T14:32:42.872Z,84
2023-05-02T14:36:08.148Z,82
2023-05-02T14:39:33.409Z,83
2023-05-02T14:42:58.727Z,84
2023-05-02T14:46:24.116Z,84
2023-05-02T14:49:49.455Z,84
2023-05-02T14:53:14.776Z,84
2023-05-02T14:56:40.150Z,84
2023-05-02T15:00:05.826Z,85
2023-05-02T15:03:30.799Z,84
2023-05-02T15:41:17.596Z,86
2023-05-02T15:44:42.874Z,85
2023-05-02T15:48:08.195Z,84
2023-05-02T15:51:33.545Z,85
2023-05-02T15:54:58.854Z,85
2023-05-02T15:58:24.241Z,83
2023-05-02T16:01:49.524Z,84
2023-05-02T16:05:14.821Z,84
2023-05-02T16:08:40.140Z,84
2023-05-02T16:12:05.443Z,84
2023-05-02T16:15:31.533Z,83
2023-05-02T16:18:56.917Z,83
2023-05-02T16:22:22.294Z,83
2023-05-02T16:25:47.592Z,83
2023-05-02T16:29:12.891Z,83
2023-05-02T16:32:38.380Z,85
2023-05-02T16:36:03.575Z,83
2023-05-02T16:39:28.972Z,84
2023-05-02T16:42:54.283Z,85
2023-05-02T16:46:19.583Z,86
2023-05-02T16:49:44.893Z,85
2023-05-02T16:53:10.091Z,86
2023-05-02T16:56:35.372Z,87
2023-05-02T17:00:01.164Z,87
2023-05-02T17:03:26.118Z,87
2023-05-02T17:06:51.443Z,88
2023-05-02T17:10:16.700Z,87
2023-05-02T17:13:42.046Z,87
2023-05-02T17:17:07.477Z,86
2023-05-02T17:20:32.698Z,87
2023-05-02T17:23:58.002Z,87
2023-05-02T17:27:23.234Z,87
2023-05-02T17:30:48.532Z,87
2023-05-02T17:34:13.828Z,86
2023-05-02T17:37:39.135Z,86
2023-05-02T17:41:04.420Z,87
2023-05-02T17:44:29.701Z,86
2023-05-02T17:47:55.025Z,87
2023-05-02T17:51:20.214Z,87
2023-05-02T17:54:45.461Z,86
2023-05-02T17:58:10.745Z,86
2023-05-02T18:06:30.731Z,88
2023-05-02T18:09:55.959Z,88
2023-05-02T18:13:21.174Z,87
2023-05-02T18:16:46.325Z,87
2023-05-02T18:20:11.539Z,85
2023-05-02T18:23:36.831Z,85
2023-05-02T18:27:02.031Z,84
2023-05-02T18:30:27.237Z,83
2023-05-02T18:33:52.440Z,83
2023-05-02T18:37:17.635Z,83
2023-05-02T18:40:42.862Z,83
2023-05-02T18:44:08.070Z,83
2023-05-02T18:47:33.428Z,83
2023-05-02T18:50:58.601Z,84
2023-05-02T18:54:23.781Z,82
2023-05-02T18:57:49.012Z,83
2023-05-02T19:01:14.280Z,82
2023-05-02T19:04:39.604Z,83
2023-05-02T19:08:04.856Z,83
2023-05-02T19:11:30.115Z,83
2023-05-02T19:14:55.363Z,83
2023-05-02T19:18:20.638Z,83
2023-05-02T19:21:45.926Z,83
2023-05-02T19:25:11.138Z,83
2023-05-02T19:28:36.410Z,83
2023-05-02T19:32:01.721Z,83
2023-05-02T19:35:26.903Z,84
2023-05-02T19:38:52.193Z,84
2023-05-02T19:42:17.332Z,84
2023-05-02T19:45:42.642Z,85
2023-05-02T19:49:07.841Z,86
2023-05-02T19:52:33.186Z,86
2023-05-02T19:55:58.473Z,86
2023-05-02T19:59:23.684Z,86
2023-05-02T20:02:50.698Z,87
2023-05-02T20:06:14.261Z,87
2023-05-02T20:09:39.420Z,87
2023-05-02T20:13:04.685Z,87
2023-05-02T20:16:29.955Z,87
2023-05-02T20:19:55.203Z,87
2023-05-02T20:23:20.500Z,87
2023-05-02T20:26:45.719Z,88
2023-05-02T20:30:11.031Z,88
2023-05-02T20:33:44.271Z,88
2023-05-02T20:37:01.569Z,88
2023-05-02T20:40:26.812Z,88
2023-05-02T20:43:52.054Z,88
2023-05-02T20:47:17.329Z,88
2023-05-02T20:50:42.509Z,88
2023-05-02T20:54:07.708Z,88
2023-05-02T20:57:32.920Z,88
2023-05-02T21:00:58.145Z,88
2023-05-02T21:04:23.333Z,88
2023-05-02T21:07:48.503Z,88
2023-05-02T21:11:13.774Z,88
2023-05-02T21:14:38.925Z,88
2023-05-02T21:18:04.186Z,88
2023-05-02T21:21:29.417Z,87
2023-05-02T21:24:54.577Z,87
2023-05-02T21:28:19.798Z,87
2023-05-02T21:31:45.029Z,86
2023-05-02T21:35:10.194Z,86
2023-05-02T21:38:35.442Z,86
2023-05-02T21:42:00.608Z,85
2023-05-02T21:45:25.803Z,86
2023-05-02T21:48:51.006Z,85
2023-05-02T21:52:16.240Z,85
2023-05-02T21:55:41.494Z,86
2023-05-02T21:59:06.676Z,86
2023-05-02T22:02:31.952Z,85
2023-05-02T22:05:57.127Z,86
2023-05-02T22:09:22.351Z,85
2023-05-02T22:12:47.570Z,85
2023-05-02T22:16:12.763Z,85
2023-05-02T22:19:37.946Z,85
2023-05-02T22:23:03.150Z,85
2023-05-02T22:26:28.392Z,85
2023-05-02T22:29:53.630Z,85
2023-05-02T22:33:18.802Z,85
2023-05-02T22:36:44.045Z,84
2023-05-02T22:40:09.269Z,85
2023-05-02T22:43:34.501Z,84
2023-05-02T22:46:59.715Z,85
2023-05-02T22:50:24.889Z,84
2023-05-02T22:53:50.115Z,84
2023-05-02T22:57:15.332Z,84
2023-05-02T23:00:40.560Z,84
2023-05-02T23:04:05.808Z,84
2023-05-02T23:07:30.985Z,84
2023-05-02T23:10:56.243Z,84
2023-05-02T23:14:21.458Z,84
2023-05-02T23:17:46.662Z,84
2023-05-02T23:21:11.880Z,83
2023-05-02T23:24:37.042Z,83
2023-05-02T23:28:02.269Z,83
2023-05-02T23:31:27.524Z,83
2023-05-02T23:34:52.693Z,83
2023-05-02T23:38:17.941Z,82
2023-05-02T23:41:43.147Z,82
2023-05-02T23:45:08.333Z,82
2023-05-02T23:48:33.577Z,81
2023-05-02T23:51:58.802Z,81
2023-05-02T23:55:24.029Z,81
2023-05-02T23:58:49.232Z,80
